DLH6RL EDDM-LKPR
Flight info
| Callsign | DLH6RL |
|---|---|
| Flight time | 0h 39m |
| Altitude | 24000 |
| Route | AKINI1S AKINI Y104 MAMOR L132 AGNAV/N0411F230 DCT LOMKI |
| Aircraft | CRJ9/M-SDFGIRWY/S |
Departure
| Time | 2026-05-06 17:40 |
|---|---|
| Airport | Munich Airport (EDDM) |
Arrival
| Time | 2026-05-06 18:20 |
|---|---|
| Airport | Václav Havel Airport Prague (LKPR) |
| Time | Latitude | Longitude | Altitude | Speed | Heading |
|---|---|---|---|---|---|
| 2026-05-06 17:13 | 48.35062 | 11.80564 | 1463 ft | 0 kts | 173° |
| 2026-05-06 17:26 | 48.35077 | 11.80562 | 1462 ft | 2 kts | 173° |
| 2026-05-06 17:26 | 48.35093 | 11.80559 | 1458 ft | 2 kts | 173° |
| 2026-05-06 17:26 | 48.35109 | 11.80556 | 1463 ft | 2 kts | 182° |
| 2026-05-06 17:27 | 48.35124 | 11.80565 | 1441 ft | 2 kts | 227° |
| 2026-05-06 17:27 | 48.35130 | 11.80587 | 1461 ft | 2 kts | 264° |
| 2026-05-06 17:27 | 48.35131 | 11.80606 | 1468 ft | 1 kts | 264° |
| 2026-05-06 17:27 | 48.35131 | 11.80607 | 1467 ft | 0 kts | 264° |
| 2026-05-06 17:29 | 48.35131 | 11.80596 | 1474 ft | 3 kts | 263° |
| 2026-05-06 17:30 | 48.35127 | 11.80552 | 1441 ft | 6 kts | 263° |
| 2026-05-06 17:30 | 48.35121 | 11.80475 | 1465 ft | 9 kts | 263° |
| 2026-05-06 17:30 | 48.35115 | 11.80398 | 1465 ft | 11 kts | 263° |
| 2026-05-06 17:30 | 48.35106 | 11.80283 | 1465 ft | 11 kts | 263° |
| 2026-05-06 17:31 | 48.35097 | 11.80173 | 1463 ft | 8 kts | 263° |
| 2026-05-06 17:31 | 48.35091 | 11.80100 | 1465 ft | 7 kts | 263° |
| 2026-05-06 17:31 | 48.35086 | 11.80029 | 1465 ft | 7 kts | 263° |
| 2026-05-06 17:31 | 48.35079 | 11.79946 | 1465 ft | 9 kts | 263° |
| 2026-05-06 17:32 | 48.35071 | 11.79845 | 1465 ft | 10 kts | 263° |
| 2026-05-06 17:32 | 48.35063 | 11.79733 | 1465 ft | 11 kts | 263° |
| 2026-05-06 17:32 | 48.35092 | 11.79636 | 1465 ft | 11 kts | 293° |
| 2026-05-06 17:32 | 48.35147 | 11.79576 | 1461 ft | 11 kts | 358° |
| 2026-05-06 17:33 | 48.35226 | 11.79564 | 1463 ft | 12 kts | 353° |
| 2026-05-06 17:33 | 48.35316 | 11.79548 | 1460 ft | 14 kts | 353° |
| 2026-05-06 17:33 | 48.35418 | 11.79530 | 1460 ft | 16 kts | 353° |
| 2026-05-06 17:33 | 48.35524 | 11.79511 | 1462 ft | 12 kts | 354° |
| 2026-05-06 17:34 | 48.35607 | 11.79499 | 1465 ft | 13 kts | 354° |
| 2026-05-06 17:34 | 48.35709 | 11.79481 | 1465 ft | 16 kts | 353° |
| 2026-05-06 17:34 | 48.35819 | 11.79460 | 1465 ft | 15 kts | 352° |
| 2026-05-06 17:34 | 48.35896 | 11.79469 | 1465 ft | 9 kts | 32° |
| 2026-05-06 17:35 | 48.35951 | 11.79506 | 1465 ft | 8 kts | 356° |
| 2026-05-06 17:35 | 48.36005 | 11.79498 | 1465 ft | 8 kts | 354° |
| 2026-05-06 17:35 | 48.36082 | 11.79484 | 1466 ft | 15 kts | 354° |
| 2026-05-06 17:36 | 48.36223 | 11.79583 | 1463 ft | 13 kts | 84° |
| 2026-05-06 17:36 | 48.36232 | 11.79714 | 1466 ft | 13 kts | 83° |
| 2026-05-06 17:36 | 48.36242 | 11.79845 | 1466 ft | 13 kts | 83° |
| 2026-05-06 17:36 | 48.36252 | 11.79975 | 1463 ft | 13 kts | 83° |
| 2026-05-06 17:37 | 48.36262 | 11.80108 | 1466 ft | 13 kts | 83° |
| 2026-05-06 17:37 | 48.36274 | 11.80255 | 1466 ft | 15 kts | 83° |
| 2026-05-06 17:37 | 48.36286 | 11.80417 | 1466 ft | 17 kts | 82° |
| 2026-05-06 17:37 | 48.36302 | 11.80619 | 1466 ft | 23 kts | 83° |
| 2026-05-06 17:38 | 48.36323 | 11.80882 | 1463 ft | 27 kts | 83° |
| 2026-05-06 17:38 | 48.36342 | 11.81136 | 1465 ft | 21 kts | 83° |
| 2026-05-06 17:38 | 48.36388 | 11.81230 | 1465 ft | 10 kts | 351° |
| 2026-05-06 17:38 | 48.36429 | 11.81154 | 1464 ft | 11 kts | 293° |
| 2026-05-06 17:39 | 48.36468 | 11.81018 | 1463 ft | 18 kts | 293° |
| 2026-05-06 17:39 | 48.36524 | 11.80823 | 1467 ft | 22 kts | 293° |
| 2026-05-06 17:39 | 48.36573 | 11.80647 | 1465 ft | 13 kts | 284° |
| 2026-05-06 17:39 | 48.36569 | 11.80540 | 1466 ft | 14 kts | 264° |
| 2026-05-06 17:40 | 48.36534 | 11.80079 | 1462 ft | 81 kts | 264° |
| 2026-05-06 17:40 | 48.36441 | 11.78896 | 1468 ft | 143 kts | 263° |
| 2026-05-06 17:40 | 48.36304 | 11.77151 | 1632 ft | 181 kts | 263° |
| 2026-05-06 17:40 | 48.36187 | 11.75283 | 2589 ft | 178 kts | 263° |
| 2026-05-06 17:41 | 48.36059 | 11.73453 | 3557 ft | 176 kts | 264° |
| 2026-05-06 17:41 | 48.35907 | 11.71596 | 4249 ft | 182 kts | 262° |
| 2026-05-06 17:41 | 48.35836 | 11.69664 | 4771 ft | 190 kts | 273° |
| 2026-05-06 17:41 | 48.36196 | 11.67738 | 5304 ft | 197 kts | 296° |
| 2026-05-06 17:42 | 48.37128 | 11.66264 | 5993 ft | 200 kts | 318° |
| 2026-05-06 17:42 | 48.38523 | 11.65438 | 6225 ft | 226 kts | 339° |
| 2026-05-06 17:42 | 48.40069 | 11.64827 | 6620 ft | 237 kts | 341° |
| 2026-05-06 17:42 | 48.41730 | 11.64260 | 7039 ft | 256 kts | 345° |
| 2026-05-06 17:43 | 48.43569 | 11.63886 | 7443 ft | 276 kts | 349° |
| 2026-05-06 17:43 | 48.45543 | 11.63732 | 8023 ft | 291 kts | 360° |
| 2026-05-06 17:43 | 48.47550 | 11.64407 | 8823 ft | 303 kts | 21° |
| 2026-05-06 17:43 | 48.49337 | 11.66128 | 9645 ft | 308 kts | 46° |
| 2026-05-06 17:44 | 48.50704 | 11.68507 | 10600 ft | 304 kts | 52° |
| 2026-05-06 17:44 | 48.52007 | 11.71105 | 11360 ft | 309 kts | 56° |
| 2026-05-06 17:44 | 48.53238 | 11.73792 | 12127 ft | 312 kts | 57° |
| 2026-05-06 17:44 | 48.54464 | 11.76526 | 12872 ft | 318 kts | 58° |
| 2026-05-06 17:45 | 48.55737 | 11.79310 | 13537 ft | 325 kts | 55° |
| 2026-05-06 17:45 | 48.57371 | 11.81687 | 14177 ft | 330 kts | 36° |
| 2026-05-06 17:45 | 48.59255 | 11.83703 | 14831 ft | 334 kts | 34° |
| 2026-05-06 17:45 | 48.61206 | 11.85654 | 15483 ft | 339 kts | 32° |
| 2026-05-06 17:46 | 48.63214 | 11.87553 | 16119 ft | 343 kts | 31° |
| 2026-05-06 17:46 | 48.65261 | 11.89466 | 16672 ft | 351 kts | 31° |
| 2026-05-06 17:46 | 48.67303 | 11.91452 | 16986 ft | 365 kts | 33° |
| 2026-05-06 17:46 | 48.69436 | 11.93653 | 17342 ft | 378 kts | 34° |
| 2026-05-06 17:47 | 48.71635 | 11.95949 | 17688 ft | 390 kts | 34° |
| 2026-05-06 17:47 | 48.73910 | 11.98320 | 18030 ft | 402 kts | 34° |
| 2026-05-06 17:47 | 48.75760 | 12.00252 | 18274 ft | 411 kts | 34° |
| 2026-05-06 17:47 | 48.78105 | 12.02684 | 18702 ft | 414 kts | 34° |
| 2026-05-06 17:48 | 48.80466 | 12.05162 | 19358 ft | 415 kts | 34° |
| 2026-05-06 17:48 | 48.82854 | 12.07662 | 19853 ft | 418 kts | 34° |
| 2026-05-06 17:48 | 48.85257 | 12.10184 | 20342 ft | 422 kts | 34° |
| 2026-05-06 17:48 | 48.87678 | 12.12724 | 20824 ft | 425 kts | 34° |
| 2026-05-06 17:49 | 48.90124 | 12.15294 | 21303 ft | 428 kts | 34° |
| 2026-05-06 17:49 | 48.92584 | 12.17879 | 21759 ft | 432 kts | 34° |
| 2026-05-06 17:49 | 48.95058 | 12.20494 | 22195 ft | 435 kts | 34° |
| 2026-05-06 17:49 | 48.97545 | 12.23115 | 22626 ft | 438 kts | 34° |
| 2026-05-06 17:50 | 49.00053 | 12.25758 | 23043 ft | 442 kts | 34° |
| 2026-05-06 17:50 | 49.01958 | 12.27761 | 23337 ft | 444 kts | 34° |
| 2026-05-06 17:50 | 49.04514 | 12.30468 | 23548 ft | 451 kts | 34° |
| 2026-05-06 17:50 | 49.07120 | 12.33233 | 23647 ft | 461 kts | 34° |
| 2026-05-06 17:51 | 49.09777 | 12.36059 | 23700 ft | 472 kts | 34° |
| 2026-05-06 17:51 | 49.12493 | 12.38952 | 23725 ft | 478 kts | 34° |
| 2026-05-06 17:51 | 49.15199 | 12.41841 | 23731 ft | 483 kts | 34° |
| 2026-05-06 17:51 | 49.17965 | 12.44792 | 23736 ft | 488 kts | 34° |
| 2026-05-06 17:52 | 49.20760 | 12.47767 | 23735 ft | 491 kts | 34° |
| 2026-05-06 17:52 | 49.23561 | 12.50763 | 23703 ft | 491 kts | 34° |
| 2026-05-06 17:52 | 49.26362 | 12.53756 | 23709 ft | 492 kts | 35° |
| 2026-05-06 17:52 | 49.29165 | 12.56770 | 23723 ft | 493 kts | 34° |
| 2026-05-06 17:53 | 49.31975 | 12.59779 | 23723 ft | 492 kts | 34° |
| 2026-05-06 17:53 | 49.34764 | 12.62780 | 23707 ft | 488 kts | 35° |
| 2026-05-06 17:53 | 49.37534 | 12.65760 | 23721 ft | 485 kts | 34° |
| 2026-05-06 17:53 | 49.40291 | 12.68723 | 23712 ft | 482 kts | 35° |
| 2026-05-06 17:54 | 49.43023 | 12.71676 | 23715 ft | 480 kts | 34° |
| 2026-05-06 17:54 | 49.45749 | 12.74617 | 23731 ft | 477 kts | 34° |
| 2026-05-06 17:54 | 49.48455 | 12.77549 | 23715 ft | 475 kts | 35° |
| 2026-05-06 17:54 | 49.51150 | 12.80464 | 23708 ft | 473 kts | 35° |
| 2026-05-06 17:55 | 49.53836 | 12.83389 | 23719 ft | 471 kts | 35° |
| 2026-05-06 17:55 | 49.56505 | 12.86283 | 23722 ft | 469 kts | 35° |
| 2026-05-06 17:55 | 49.59172 | 12.89183 | 23725 ft | 468 kts | 35° |
| 2026-05-06 17:55 | 49.61843 | 12.92091 | 23726 ft | 473 kts | 35° |
| 2026-05-06 17:56 | 49.64538 | 12.95037 | 23638 ft | 476 kts | 35° |
| 2026-05-06 17:56 | 49.67214 | 12.97957 | 23227 ft | 466 kts | 35° |
| 2026-05-06 17:56 | 49.69365 | 13.00307 | 22735 ft | 460 kts | 36° |
| 2026-05-06 17:56 | 49.71884 | 13.03056 | 22154 ft | 452 kts | 35° |
| 2026-05-06 17:57 | 49.74426 | 13.05848 | 21565 ft | 445 kts | 36° |
| 2026-05-06 17:57 | 49.76939 | 13.08613 | 20990 ft | 440 kts | 36° |
| 2026-05-06 17:57 | 49.79409 | 13.11339 | 20427 ft | 434 kts | 36° |
| 2026-05-06 17:57 | 49.81843 | 13.14022 | 19890 ft | 425 kts | 35° |
| 2026-05-06 17:58 | 49.84229 | 13.16642 | 19350 ft | 417 kts | 35° |
| 2026-05-06 17:58 | 49.86577 | 13.19220 | 18811 ft | 410 kts | 35° |
| 2026-05-06 17:58 | 49.88832 | 13.21872 | 18282 ft | 404 kts | 45° |
| 2026-05-06 17:58 | 49.90409 | 13.25394 | 17706 ft | 395 kts | 69° |
| 2026-05-06 17:59 | 49.90976 | 13.29470 | 17132 ft | 383 kts | 91° |
| 2026-05-06 17:59 | 49.90929 | 13.33567 | 16572 ft | 377 kts | 97° |
| 2026-05-06 17:59 | 49.90674 | 13.37616 | 16025 ft | 379 kts | 100° |
| 2026-05-06 17:59 | 49.90336 | 13.41706 | 15480 ft | 385 kts | 101° |
| 2026-05-06 18:00 | 49.89956 | 13.45842 | 14992 ft | 390 kts | 100° |
| 2026-05-06 18:00 | 49.90034 | 13.50039 | 14530 ft | 398 kts | 78° |
| 2026-05-06 18:00 | 49.91174 | 13.53961 | 14092 ft | 400 kts | 54° |
| 2026-05-06 18:00 | 49.92995 | 13.57207 | 13689 ft | 398 kts | 48° |
| 2026-05-06 18:01 | 49.94778 | 13.60480 | 13246 ft | 396 kts | 50° |
| 2026-05-06 18:01 | 49.96510 | 13.63779 | 12957 ft | 389 kts | 51° |
| 2026-05-06 18:01 | 49.98196 | 13.67005 | 12817 ft | 382 kts | 51° |
| 2026-05-06 18:01 | 49.99862 | 13.70196 | 12773 ft | 379 kts | 51° |
| 2026-05-06 18:02 | 50.01122 | 13.72608 | 12756 ft | 379 kts | 50° |
| 2026-05-06 18:02 | 50.02802 | 13.75770 | 12743 ft | 379 kts | 50° |
| 2026-05-06 18:02 | 50.04474 | 13.78929 | 12741 ft | 378 kts | 50° |
| 2026-05-06 18:02 | 50.06139 | 13.82099 | 12734 ft | 378 kts | 51° |
| 2026-05-06 18:03 | 50.07800 | 13.85259 | 12737 ft | 377 kts | 51° |
| 2026-05-06 18:03 | 50.09456 | 13.88417 | 12740 ft | 377 kts | 51° |
| 2026-05-06 18:03 | 50.11115 | 13.91582 | 12744 ft | 377 kts | 51° |
| 2026-05-06 18:03 | 50.12718 | 13.94642 | 12743 ft | 376 kts | 51° |
| 2026-05-06 18:04 | 50.14371 | 13.97802 | 12735 ft | 376 kts | 51° |
| 2026-05-06 18:04 | 50.15462 | 13.99894 | 12733 ft | 376 kts | 51° |
| 2026-05-06 18:04 | 50.16708 | 14.02263 | 12735 ft | 376 kts | 50° |
| 2026-05-06 18:04 | 50.18381 | 14.05403 | 12734 ft | 377 kts | 50° |
| 2026-05-06 18:05 | 50.20036 | 14.08543 | 12697 ft | 378 kts | 51° |
| 2026-05-06 18:05 | 50.21694 | 14.11716 | 12297 ft | 376 kts | 51° |
| 2026-05-06 18:05 | 50.23321 | 14.14820 | 11821 ft | 361 kts | 50° |
| 2026-05-06 18:05 | 50.25146 | 14.17344 | 11316 ft | 344 kts | 27° |
| 2026-05-06 18:06 | 50.27364 | 14.18336 | 10853 ft | 325 kts | 358° |
| 2026-05-06 18:06 | 50.29471 | 14.17651 | 10604 ft | 298 kts | 328° |
| 2026-05-06 18:06 | 50.31009 | 14.15705 | 10371 ft | 277 kts | 309° |
| 2026-05-06 18:06 | 50.32282 | 14.13538 | 10119 ft | 266 kts | 307° |
| 2026-05-06 18:07 | 50.33477 | 14.11397 | 9863 ft | 257 kts | 306° |
| 2026-05-06 18:07 | 50.34617 | 14.09294 | 9601 ft | 250 kts | 305° |
| 2026-05-06 18:07 | 50.35716 | 14.07234 | 9330 ft | 241 kts | 305° |
| 2026-05-06 18:07 | 50.36708 | 14.05378 | 9205 ft | 224 kts | 305° |
| 2026-05-06 18:08 | 50.37692 | 14.03539 | 8972 ft | 216 kts | 305° |
| 2026-05-06 18:08 | 50.38631 | 14.01787 | 8878 ft | 203 kts | 305° |
| 2026-05-06 18:08 | 50.39580 | 13.99999 | 8780 ft | 223 kts | 304° |
| 2026-05-06 18:08 | 50.40340 | 13.98524 | 8781 ft | 234 kts | 304° |
| 2026-05-06 18:09 | 50.41356 | 13.96499 | 8767 ft | 236 kts | 304° |
| 2026-05-06 18:09 | 50.42485 | 13.94620 | 8733 ft | 234 kts | 318° |
| 2026-05-06 18:09 | 50.43858 | 13.93375 | 8695 ft | 234 kts | 343° |
| 2026-05-06 18:09 | 50.45443 | 13.93600 | 8685 ft | 233 kts | 24° |
| 2026-05-06 18:10 | 50.46627 | 13.95332 | 8707 ft | 240 kts | 64° |
| 2026-05-06 18:10 | 50.46920 | 13.97882 | 8745 ft | 242 kts | 102° |
| 2026-05-06 18:10 | 50.46191 | 14.00181 | 8774 ft | 236 kts | 138° |
| 2026-05-06 18:10 | 50.45265 | 14.01535 | 8764 ft | 239 kts | 143° |
| 2026-05-06 18:11 | 50.44002 | 14.03240 | 8739 ft | 239 kts | 144° |
| 2026-05-06 18:11 | 50.42733 | 14.04915 | 8730 ft | 238 kts | 144° |
| 2026-05-06 18:11 | 50.41387 | 14.06369 | 8321 ft | 232 kts | 164° |
| 2026-05-06 18:11 | 50.39848 | 14.06359 | 7998 ft | 219 kts | 200° |
| 2026-05-06 18:12 | 50.38452 | 14.05573 | 7846 ft | 207 kts | 203° |
| 2026-05-06 18:12 | 50.37113 | 14.04728 | 7448 ft | 209 kts | 204° |
| 2026-05-06 18:12 | 50.35769 | 14.03831 | 7070 ft | 210 kts | 205° |
| 2026-05-06 18:12 | 50.34444 | 14.02919 | 6883 ft | 207 kts | 205° |
| 2026-05-06 18:13 | 50.33123 | 14.01992 | 6807 ft | 211 kts | 205° |
| 2026-05-06 18:13 | 50.31779 | 14.01040 | 6778 ft | 213 kts | 205° |
| 2026-05-06 18:13 | 50.30419 | 14.00075 | 6764 ft | 215 kts | 205° |
| 2026-05-06 18:13 | 50.29414 | 13.99364 | 6726 ft | 213 kts | 205° |
| 2026-05-06 18:14 | 50.28076 | 13.98437 | 6368 ft | 209 kts | 205° |
| 2026-05-06 18:14 | 50.26748 | 13.97514 | 5918 ft | 208 kts | 205° |
| 2026-05-06 18:14 | 50.25369 | 13.96882 | 5386 ft | 211 kts | 180° |
| 2026-05-06 18:14 | 50.23987 | 13.97630 | 4919 ft | 213 kts | 149° |
| 2026-05-06 18:15 | 50.22975 | 13.99327 | 4496 ft | 215 kts | 128° |
| 2026-05-06 18:15 | 50.22314 | 14.00671 | 4265 ft | 214 kts | 129° |
| 2026-05-06 18:15 | 50.21420 | 14.02530 | 4116 ft | 217 kts | 128° |
| 2026-05-06 18:15 | 50.20526 | 14.04378 | 4051 ft | 205 kts | 128° |
| 2026-05-06 18:16 | 50.19737 | 14.06015 | 3995 ft | 177 kts | 128° |
| 2026-05-06 18:16 | 50.19019 | 14.07495 | 3838 ft | 169 kts | 128° |
| 2026-05-06 18:16 | 50.18323 | 14.08955 | 3622 ft | 166 kts | 128° |
| 2026-05-06 18:16 | 50.17636 | 14.10378 | 3420 ft | 162 kts | 128° |
| 2026-05-06 18:17 | 50.16957 | 14.11791 | 3226 ft | 164 kts | 128° |
| 2026-05-06 18:17 | 50.16261 | 14.13228 | 3007 ft | 168 kts | 127° |
| 2026-05-06 18:17 | 50.15557 | 14.14690 | 2767 ft | 170 kts | 127° |
| 2026-05-06 18:17 | 50.14847 | 14.16174 | 2525 ft | 171 kts | 127° |
| 2026-05-06 18:18 | 50.14141 | 14.17644 | 2314 ft | 164 kts | 126° |
| 2026-05-06 18:18 | 50.13503 | 14.18964 | 2097 ft | 145 kts | 126° |
| 2026-05-06 18:18 | 50.12908 | 14.20195 | 1901 ft | 145 kts | 126° |
| 2026-05-06 18:18 | 50.12355 | 14.21341 | 1731 ft | 141 kts | 126° |
| 2026-05-06 18:19 | 50.11764 | 14.22563 | 1535 ft | 141 kts | 126° |
| 2026-05-06 18:19 | 50.11181 | 14.23754 | 1350 ft | 141 kts | 126° |
| 2026-05-06 18:19 | 50.10627 | 14.24888 | 1182 ft | 134 kts | 125° |
| 2026-05-06 18:19 | 50.10130 | 14.25929 | 1189 ft | 97 kts | 127° |
| 2026-05-06 18:20 | 50.09878 | 14.26461 | 1207 ft | 27 kts | 112° |
| 2026-05-06 18:20 | 50.09884 | 14.26726 | 1210 ft | 25 kts | 82° |
| 2026-05-06 18:20 | 50.09902 | 14.26913 | 1208 ft | 10 kts | 80° |
| 2026-05-06 18:20 | 50.09914 | 14.27051 | 1206 ft | 16 kts | 83° |
| 2026-05-06 18:21 | 50.09934 | 14.27135 | 1204 ft | 3 kts | 0° |
| 2026-05-06 18:21 | 50.09956 | 14.27106 | 1204 ft | 10 kts | 307° |
| 2026-05-06 18:21 | 50.10035 | 14.26944 | 1201 ft | 24 kts | 307° |
| 2026-05-06 18:21 | 50.10140 | 14.26727 | 1196 ft | 26 kts | 306° |
| 2026-05-06 18:22 | 50.10245 | 14.26506 | 1193 ft | 24 kts | 307° |
| 2026-05-06 18:22 | 50.10351 | 14.26287 | 1188 ft | 25 kts | 307° |
| 2026-05-06 18:22 | 50.10431 | 14.26122 | 1185 ft | 12 kts | 305° |
| 2026-05-06 18:22 | 50.10488 | 14.26005 | 1183 ft | 15 kts | 309° |
| 2026-05-06 18:23 | 50.10575 | 14.26024 | 1175 ft | 17 kts | 53° |
| 2026-05-06 18:23 | 50.10552 | 14.26163 | 1175 ft | 13 kts | 120° |
| 2026-05-06 18:23 | 50.10513 | 14.26295 | 1174 ft | 13 kts | 124° |
| 2026-05-06 18:23 | 50.10460 | 14.26415 | 1173 ft | 14 kts | 124° |
| 2026-05-06 18:24 | 50.10402 | 14.26530 | 1175 ft | 13 kts | 129° |
| 2026-05-06 18:24 | 50.10382 | 14.26595 | 1178 ft | 5 kts | 72° |
| 2026-05-06 18:24 | 50.10409 | 14.26631 | 1173 ft | 1 kts | 33° |
| 2026-05-06 18:24 | 50.10410 | 14.26631 | 1173 ft | 0 kts | 33° |